Time;durP1;ratioP1;P1;durP2;ratioP2;P2;SDS_P1;SDS_P2;PMS_P1;PMS_P2;Temp;Humidity;BMP_temperature;BMP_pressure;BME280_temperature;BME280_humidity;BME280_pressure;Samples;Min_cycle;Max_cycle;Signal;HPM_P1;HPM_P2
2023/03/07 00:02:11;;;;;;;27.55;14.98;;;;;;;2.03;100.00;99481.00;5050828;28;20059;-81
2023/03/07 00:04:43;;;;;;;21.20;13.45;;;;;;;2.04;100.00;99470.66;5029448;28;20051;-79
2023/03/07 00:07:11;;;;;;;27.13;14.52;;;;;;;2.06;100.00;99470.63;5050516;28;20044;-79
2023/03/07 00:09:39;;;;;;;26.95;13.80;;;;;;;2.06;100.00;99466.34;5084355;28;20055;-79
2023/03/07 00:12:08;;;;;;;25.30;14.50;;;;;;;2.08;100.00;99468.94;5083525;28;20047;-79
2023/03/07 00:14:35;;;;;;;24.23;13.98;;;;;;;2.08;100.00;99468.94;5026853;28;20044;-79
2023/03/07 00:17:03;;;;;;;19.08;12.15;;;;;;;2.06;100.00;99458.53;5068469;28;20048;-78
2023/03/07 00:19:30;;;;;;;23.38;14.82;;;;;;;2.04;100.00;99456.75;5045054;28;20397;-80
2023/03/07 00:21:58;;;;;;;25.85;14.07;;;;;;;2.04;100.00;99462.84;5068957;28;20044;-79
2023/03/07 00:24:25;;;;;;;21.38;12.98;;;;;;;2.04;100.00;99448.97;5053675;28;20056;-79
2023/03/07 00:26:54;;;;;;;25.15;12.95;;;;;;;2.03;100.00;99444.63;5069899;28;20059;-78
2023/03/07 00:29:21;;;;;;;25.17;13.40;;;;;;;2.01;100.00;99449.78;4996922;28;20048;-80
2023/03/07 00:31:49;;;;;;;20.80;11.88;;;;;;;2.00;100.00;99453.22;5069328;28;20500;-78
2023/03/07 00:34:16;;;;;;;23.85;13.32;;;;;;;2.02;100.00;99466.25;5059464;28;20059;-79
2023/03/07 00:36:44;;;;;;;23.92;12.90;;;;;;;2.07;100.00;99459.41;5052195;28;20243;-81
2023/03/07 00:39:12;;;;;;;23.10;11.80;;;;;;;2.10;100.00;99449.94;5052760;28;20044;-79
2023/03/07 00:41:39;;;;;;;24.80;12.38;;;;;;;2.13;100.00;99449.97;5022742;28;20716;-81
2023/03/07 00:44:07;;;;;;;23.55;12.32;;;;;;;2.16;100.00;99448.28;5016524;28;20049;-81
2023/03/07 00:46:34;;;;;;;19.58;11.10;;;;;;;2.13;100.00;99439.56;5092583;28;20411;-81
2023/03/07 00:49:02;;;;;;;21.85;11.40;;;;;;;2.12;100.00;99439.56;5070259;28;20048;-80
2023/03/07 00:51:30;;;;;;;19.75;10.65;;;;;;;2.09;100.00;99434.31;5044920;28;20059;-81
2023/03/07 00:53:57;;;;;;;19.58;10.95;;;;;;;2.08;100.00;99436.06;5068933;28;20048;-80
2023/03/07 00:56:25;;;;;;;19.60;10.52;;;;;;;2.06;100.00;99437.75;5037996;28;20051;-80
2023/03/07 00:58:52;;;;;;;22.90;10.38;;;;;;;2.03;100.00;99435.09;5050595;28;20378;-80
2023/03/07 01:01:23;;;;;;;16.15;9.43;;;;;;;2.01;100.00;99425.53;5019232;28;20052;-80
2023/03/07 01:03:55;;;;;;;14.85;7.93;;;;;;;2.00;100.00;99427.25;5067291;28;20052;-80
2023/03/07 01:06:25;;;;;;;14.27;7.97;;;;;;;2.01;100.00;99423.81;5060535;28;20067;-81
2023/03/07 01:08:56;;;;;;;16.70;7.75;;;;;;;2.03;100.00;99429.03;5051783;28;20077;-81
2023/03/07 01:11:25;;;;;;;;;;;;;;;2.03;100.00;99424.72;5043828;28;20679;-81
2023/03/07 01:13:58;;;;;;;11.82;6.28;;;;;;;2.05;100.00;99422.13;5054910;28;19927;-81
2023/03/07 01:16:29;;;;;;;16.75;6.90;;;;;;;2.06;100.00;99422.16;5039177;28;20052;-80
2023/03/07 01:18:58;;;;;;;;;;;;;;;2.07;100.00;99415.22;5068260;28;20408;-81
2023/03/07 01:21:41;;;;;;;10.82;5.20;;;;;;;2.07;100.00;99423.91;5060653;28;20335;-81
2023/03/07 01:24:12;;;;;;;15.98;4.03;;;;;;;2.07;100.00;99416.09;5083685;28;20044;-80
2023/03/07 01:26:41;;;;;;;19.02;5.15;;;;;;;2.08;100.00;99406.56;5075947;28;20051;-80
2023/03/07 01:29:10;;;;;;;12.77;3.40;;;;;;;2.09;100.00;99405.72;5067523;28;20040;-80
2023/03/07 01:31:37;;;;;;;7.57;2.80;;;;;;;2.10;100.00;99410.97;5035371;28;20055;-80
2023/03/07 01:34:05;;;;;;;10.93;2.80;;;;;;;2.12;100.00;99405.78;5068487;28;20100;-79
2023/03/07 01:36:35;;;;;;;12.93;2.60;;;;;;;2.12;100.00;99403.19;5070544;28;20044;-80
2023/03/07 01:39:06;;;;;;;10.63;2.25;;;;;;;2.12;100.00;99398.00;5058598;28;20039;-80
2023/03/07 01:41:37;;;;;;;8.20;1.98;;;;;;;2.10;100.00;99397.97;5069463;28;20390;-80
2023/03/07 01:44:21;;;;;;;17.13;3.15;;;;;;;2.06;100.00;99390.97;5066454;28;20417;-80
2023/03/07 01:46:54;;;;;;;8.00;2.40;;;;;;;2.03;100.00;99397.84;5060722;28;20508;-79
2023/03/07 01:49:41;;;;;;;14.90;2.70;;;;;;;1.97;100.00;99390.84;5053277;28;20051;-80
2023/03/07 01:52:13;;;;;;;8.52;1.95;;;;;;;1.96;100.00;99389.09;5059867;28;20051;-80
2023/03/07 01:54:50;;;;;;;9.70;2.25;;;;;;;1.91;100.00;99378.66;5057047;28;20044;-80
2023/03/07 01:57:23;;;;;;;18.90;2.50;;;;;;;1.85;100.00;99375.97;5068562;28;20052;-80
2023/03/07 01:59:55;;;;;;;9.75;2.20;;;;;;;1.80;100.00;99380.22;5069713;28;20056;-79
2023/03/07 02:02:23;;;;;;;14.43;1.75;;;;;;;1.79;100.00;99377.59;5012426;28;20048;-80
2023/03/07 02:05:01;;;;;;;10.57;2.10;;;;;;;1.77;100.00;99374.97;5056951;28;20067;-79
2023/03/07 02:07:34;;;;;;;18.55;2.42;;;;;;;1.75;100.00;99376.66;5067085;28;20056;-79
2023/03/07 02:10:04;;;;;;;9.48;2.35;;;;;;;1.74;100.00;99369.75;5070860;28;20416;-79
2023/03/07 02:12:32;;;;;;;12.52;2.15;;;;;;;1.73;100.00;99366.25;5054699;28;20075;-81
2023/03/07 02:15:00;;;;;;;9.95;2.45;;;;;;;1.72;100.00;99367.09;5059935;28;20055;-77
2023/03/07 02:17:27;;;;;;;8.85;1.77;;;;;;;1.71;100.00;99362.75;5020997;28;20062;-79
2023/03/07 02:20:22;;;;;;;16.17;2.22;;;;;;;1.68;100.00;99359.22;5071019;28;20036;-80
2023/03/07 02:22:50;;;;;;;8.05;1.83;;;;;;;1.66;100.00;99358.34;5091435;28;20048;-79
2023/03/07 02:25:30;;;;;;;12.73;2.28;;;;;;;1.64;100.00;99358.31;5075191;28;20048;-80
2023/03/07 02:27:58;;;;;;;11.13;2.08;;;;;;;1.63;100.00;99358.31;5048936;28;20062;-79
2023/03/07 02:30:25;;;;;;;8.82;1.98;;;;;;;1.60;100.00;99345.28;5055764;28;20052;-79
2023/03/07 02:32:53;;;;;;;6.88;1.92;;;;;;;1.59;100.00;99333.13;5040471;28;20079;-79
2023/03/07 02:35:23;;;;;;;10.43;1.77;;;;;;;1.57;100.00;99346.09;5035009;28;20063;-80
2023/03/07 02:38:02;;;;;;;7.78;2.17;;;;;;;1.56;100.00;99340.00;5060283;28;20056;-79
2023/03/07 02:40:31;;;;;;;12.13;2.30;;;;;;;1.55;100.00;99342.59;5064056;28;20055;-80
2023/03/07 02:43:08;;;;;;;11.52;2.08;;;;;;;1.55;100.00;99345.19;5071252;28;20059;-80
2023/03/07 02:45:38;;;;;;;8.20;1.90;;;;;;;1.54;100.00;99339.13;5073493;28;20052;-80
2023/03/07 02:48:05;;;;;;;9.07;1.83;;;;;;;1.56;100.00;99334.81;5034255;28;20489;-79
2023/03/07 02:50:34;;;;;;;10.07;2.22;;;;;;;1.61;100.00;99344.41;5047139;28;20044;-79
2023/03/07 02:53:01;;;;;;;13.07;2.22;;;;;;;1.59;100.00;99353.91;5047019;28;20043;-79
2023/03/07 02:55:29;;;;;;;9.80;1.70;;;;;;;1.58;100.00;99336.59;5064322;28;20515;-79
2023/03/07 02:58:01;;;;;;;7.28;2.58;;;;;;;1.57;100.00;99340.91;5067382;28;20102;-79
2023/03/07 03:00:29;;;;;;;5.30;1.40;;;;;;;1.59;100.00;99343.50;5086642;28;20048;-79
2023/03/07 03:02:56;;;;;;;8.63;1.60;;;;;;;1.58;100.00;99344.38;5062040;28;20110;-79
2023/03/07 03:05:23;;;;;;;6.53;2.15;;;;;;;1.54;100.00;99341.72;5031563;28;20052;-79
2023/03/07 03:07:52;;;;;;;6.63;1.70;;;;;;;1.50;100.00;99324.34;5072249;28;20055;-79
2023/03/07 03:10:19;;;;;;;13.60;1.98;;;;;;;1.48;100.00;99330.38;5055114;28;20050;-78
2023/03/07 03:12:47;;;;;;;5.80;1.73;;;;;;;1.45;100.00;99331.19;5059438;28;20044;-79
2023/03/07 03:15:15;;;;;;;12.10;1.80;;;;;;;1.43;100.00;99326.84;5037422;28;20075;-79
2023/03/07 03:17:43;;;;;;;8.43;1.92;;;;;;;1.39;100.00;99328.50;5053030;28;20520;-78
2023/03/07 03:20:11;;;;;;;8.15;2.03;;;;;;;1.38;100.00;99328.47;5019670;28;20768;-79
2023/03/07 03:22:40;;;;;;;10.10;1.92;;;;;;;1.38;100.00;99337.16;5076363;28;20052;-79
2023/03/07 03:25:11;;;;;;;8.88;1.75;;;;;;;1.36;100.00;99326.75;5066811;28;20048;-81
2023/03/07 03:27:40;;;;;;;10.93;1.92;;;;;;;1.34;100.00;99324.97;5065669;28;20051;-81
2023/03/07 03:30:11;;;;;;;13.97;2.17;;;;;;;1.31;100.00;99333.56;5056609;28;20052;-81
2023/03/07 03:32:40;;;;;;;9.60;2.17;;;;;;;1.30;100.00;99321.44;5076117;28;20043;-81
2023/03/07 03:35:10;;;;;;;7.60;1.87;;;;;;;1.28;100.00;99325.72;5040193;28;20557;-80
2023/03/07 03:37:38;;;;;;;4.85;1.83;;;;;;;1.27;100.00;99330.91;5073812;28;20044;-81
2023/03/07 03:40:13;;;;;;;9.77;1.85;;;;;;;1.24;100.00;99325.66;5068745;28;20051;-81
2023/03/07 03:42:44;;;;;;;12.15;1.98;;;;;;;1.24;100.00;99330.84;5066502;28;20082;-81
2023/03/07 03:45:13;;;;;;;8.00;1.80;;;;;;;1.23;100.00;99322.22;5062109;28;20040;-81
2023/03/07 03:47:41;;;;;;;10.70;1.95;;;;;;;1.23;100.00;99317.03;5059044;28;20047;-81
2023/03/07 03:50:09;;;;;;;6.68;2.35;;;;;;;1.22;100.00;99323.03;5074525;28;20052;-81
2023/03/07 03:52:38;;;;;;;5.68;1.70;;;;;;;1.20;100.00;99329.94;5019562;28;20055;-81
2023/03/07 03:55:05;;;;;;;10.65;2.03;;;;;;;1.22;100.00;99329.97;5054488;28;20048;-80
2023/03/07 03:57:33;;;;;;;2.95;1.55;;;;;;;1.19;100.00;99317.78;5074951;28;20048;-80
2023/03/07 04:00:00;;;;;;;9.18;2.05;;;;;;;1.20;100.00;99321.28;5069098;28;20416;-81
2023/03/07 04:02:29;;;;;;;7.95;1.73;;;;;;;1.17;100.00;99328.16;5092766;28;21793;-80
2023/03/07 04:04:58;;;;;;;6.82;1.75;;;;;;;1.20;100.00;99339.44;5088111;28;20045;-80
2023/03/07 04:07:28;;;;;;;4.57;1.40;;;;;;;1.18;100.00;99347.19;5020893;28;20048;-81
2023/03/07 04:09:55;;;;;;;13.43;2.10;;;;;;;1.21;100.00;99346.38;5073039;28;20048;-81
2023/03/07 04:12:23;;;;;;;6.38;1.20;;;;;;;1.24;100.00;99341.25;5087311;28;20059;-80
2023/03/07 04:14:51;;;;;;;15.45;1.85;;;;;;;1.26;100.00;99336.94;5040618;28;20044;-80
2023/03/07 04:17:18;;;;;;;14.10;2.33;;;;;;;1.26;100.00;99326.56;5073189;28;20055;-81
2023/03/07 04:19:45;;;;;;;10.60;1.95;;;;;;;1.26;100.00;99329.16;5073650;28;20048;-81
2023/03/07 04:22:13;;;;;;;9.82;1.77;;;;;;;1.28;100.00;99325.72;5015983;28;20050;-81
2023/03/07 04:24:40;;;;;;;9.40;1.60;;;;;;;1.28;100.00;99320.53;5055889;28;20040;-82
2023/03/07 04:27:07;;;;;;;8.02;1.83;;;;;;;1.26;100.00;99318.78;5037221;28;20529;-81
2023/03/07 04:29:36;;;;;;;9.60;2.42;;;;;;;1.25;100.00;99317.91;5045453;28;20524;-81
2023/03/07 04:32:12;;;;;;;9.23;1.77;;;;;;;1.23;100.00;99308.34;5048085;28;20056;-81
2023/03/07 04:34:40;;;;;;;6.88;1.98;;;;;;;1.23;100.00;99309.22;5060937;28;20492;-82
2023/03/07 04:37:08;;;;;;;5.13;1.77;;;;;;;1.22;100.00;99317.00;4996623;28;20123;-80
2023/03/07 04:39:35;;;;;;;8.48;2.38;;;;;;;1.24;100.00;99320.47;5057199;28;20044;-81
2023/03/07 04:42:03;;;;;;;9.07;2.25;;;;;;;1.27;100.00;99326.59;5055182;28;20417;-81
2023/03/07 04:44:34;;;;;;;9.00;2.42;;;;;;;1.29;100.00;99319.72;5056314;28;20055;-81
2023/03/07 04:47:02;;;;;;;8.32;1.58;;;;;;;1.29;100.00;99318.84;5058556;28;20043;-81
2023/03/07 04:49:33;;;;;;;11.82;1.90;;;;;;;1.30;100.00;99312.78;5074382;28;20048;-81
2023/03/07 04:52:02;;;;;;;13.30;2.40;;;;;;;1.30;100.00;99318.84;5034751;28;20052;-80
2023/03/07 04:54:30;;;;;;;6.53;1.42;;;;;;;1.31;100.00;99315.41;5076874;28;20052;-80
2023/03/07 04:56:59;;;;;;;14.20;2.78;;;;;;;1.33;100.00;99331.00;5040986;28;20409;-81
2023/03/07 04:59:26;;;;;;;10.60;2.20;;;;;;;1.36;100.00;99336.22;5053863;28;20058;-81
2023/03/07 05:01:54;;;;;;;9.18;1.70;;;;;;;1.36;100.00;99325.84;5050436;28;20619;-81
2023/03/07 05:04:21;;;;;;;16.55;2.80;;;;;;;1.32;100.00;99322.38;5083837;28;20843;-81
2023/03/07 05:06:49;;;;;;;15.55;2.05;;;;;;;1.28;100.00;99327.47;5041466;28;20055;-81
2023/03/07 05:09:16;;;;;;;11.02;2.13;;;;;;;1.23;100.00;99323.91;4997727;28;20044;-81
2023/03/07 05:11:44;;;;;;;5.40;1.60;;;;;;;1.17;100.00;99315.19;5085306;28;20063;-81
2023/03/07 05:14:12;;;;;;;8.48;1.92;;;;;;;1.15;100.00;99327.28;5067002;28;20507;-81
2023/03/07 05:16:40;;;;;;;10.65;1.77;;;;;;;1.15;100.00;99326.38;5037905;28;20054;-81
2023/03/07 05:19:08;;;;;;;12.35;2.60;;;;;;;1.15;100.00;99327.28;5030377;28;20056;-81
2023/03/07 05:21:39;;;;;;;6.47;2.42;;;;;;;1.14;100.00;99333.31;5064589;28;20052;-82
2023/03/07 05:24:07;;;;;;;8.07;1.98;;;;;;;1.13;100.00;99326.34;5034216;28;20055;-80
2023/03/07 05:26:35;;;;;;;9.48;1.88;;;;;;;1.14;100.00;99333.31;5054005;28;20079;-79
2023/03/07 05:29:03;;;;;;;7.78;2.20;;;;;;;1.16;100.00;99339.38;5088868;28;20044;-79
2023/03/07 05:31:30;;;;;;;12.13;2.00;;;;;;;1.19;100.00;99341.16;5050682;28;20061;-80
2023/03/07 05:33:58;;;;;;;9.00;1.60;;;;;;;1.22;100.00;99341.22;5041441;28;20062;-79
2023/03/07 05:36:26;;;;;;;8.50;1.90;;;;;;;1.24;100.00;99334.31;5101864;28;20052;-80
2023/03/07 05:38:56;;;;;;;5.15;1.30;;;;;;;1.27;100.00;99334.38;5059316;28;20051;-79
2023/03/07 05:41:24;;;;;;;11.87;1.77;;;;;;;1.29;100.00;99335.28;5055871;28;20046;-80
2023/03/07 05:43:53;;;;;;;7.45;1.90;;;;;;;1.31;100.00;99327.53;5068938;28;20298;-80
2023/03/07 05:46:22;;;;;;;11.35;2.10;;;;;;;1.34;100.00;99343.13;5070614;28;20388;-79
2023/03/07 05:48:50;;;;;;;6.57;1.23;;;;;;;1.36;100.00;99349.22;5064351;28;20067;-79
2023/03/07 05:51:17;;;;;;;8.73;2.10;;;;;;;1.35;100.00;99353.53;5089397;28;20044;-81
2023/03/07 05:53:45;;;;;;;8.93;1.70;;;;;;;1.35;100.00;99345.75;5058855;28;20048;-81
2023/03/07 05:56:13;;;;;;;5.70;1.17;;;;;;;1.35;100.00;99350.06;5017921;28;20244;-82
2023/03/07 05:58:41;;;;;;;3.55;1.60;;;;;;;1.35;100.00;99355.28;5021250;28;20052;-82
2023/03/07 06:01:09;;;;;;;4.50;1.55;;;;;;;1.35;100.00;99350.06;5055050;28;20048;-81
2023/03/07 06:03:38;;;;;;;11.63;1.73;;;;;;;1.36;100.00;99372.56;5057995;28;20045;-81
2023/03/07 06:06:05;;;;;;;6.95;1.40;;;;;;;1.37;100.00;99369.13;5055467;28;20418;-80
2023/03/07 06:08:34;;;;;;;4.38;1.17;;;;;;;1.38;100.00;99375.19;5044606;28;20052;-80
2023/03/07 06:11:01;;;;;;;3.92;1.10;;;;;;;1.38;100.00;99382.97;4994853;28;20612;-84
2023/03/07 06:13:30;;;;;;;6.72;0.80;;;;;;;1.35;100.00;99381.22;5067711;28;20405;-81
2023/03/07 06:15:57;;;;;;;4.95;1.10;;;;;;;1.32;100.00;99384.66;5063898;28;20048;-81
2023/03/07 06:18:27;;;;;;;3.55;1.00;;;;;;;1.26;100.00;99378.47;5042884;28;20057;-82
2023/03/07 06:21:06;;;;;;;2.28;1.05;;;;;;;1.16;100.00;99367.94;5054165;28;20052;-80
2023/03/07 06:23:38;;;;;;;3.25;1.00;;;;;;;1.13;100.00;99370.44;5069482;28;20059;-80
2023/03/07 06:26:13;;;;;;;3.97;1.10;;;;;;;1.09;100.00;99366.06;4990647;28;20059;-81
2023/03/07 06:28:44;;;;;;;4.35;1.00;;;;;;;1.06;100.00;99363.44;5096892;28;20401;-80
2023/03/07 06:31:16;;;;;;;6.88;1.20;;;;;;;1.03;100.00;99368.56;5053004;28;20052;-80
2023/03/07 06:33:46;;;;;;;6.28;1.45;;;;;;;1.02;100.00;99365.94;5040132;28;20048;-80
2023/03/07 06:36:17;;;;;;;2.85;0.90;;;;;;;1.02;100.00;99372.03;5064363;28;20040;-80
2023/03/07 06:38:48;;;;;;;6.50;1.20;;;;;;;1.00;100.00;99372.81;5030863;28;20056;-79
2023/03/07 06:41:16;;;;;;;5.70;1.10;;;;;;;1.00;100.00;99371.09;5027990;28;20044;-79
2023/03/07 06:43:45;;;;;;;6.50;1.23;;;;;;;1.00;100.00;99373.69;5034129;28;20055;-79
2023/03/07 06:47:15;;;;;;;7.93;1.35;;;;;;;1.02;100.00;99374.63;5044503;28;20048;-81
2023/03/07 06:49:43;;;;;;;;;;;;;;;1.02;100.00;99377.22;5030718;28;20045;-80
2023/03/07 06:52:11;;;;;;;6.22;1.30;;;;;;;1.03;100.00;99378.94;5028951;28;19921;-83
2023/03/07 06:54:40;;;;;;;9.52;1.65;;;;;;;1.04;100.00;99378.09;4999073;28;20060;-84
2023/03/07 06:57:08;;;;;;;8.23;1.50;;;;;;;1.07;100.00;99380.72;5007474;28;20054;-82
2023/03/07 06:59:36;;;;;;;6.93;1.30;;;;;;;1.10;100.00;99383.41;5012950;28;20053;-81
2023/03/07 07:02:03;;;;;;;9.25;1.23;;;;;;;1.12;100.00;99386.03;5028964;28;20064;-82
2023/03/07 07:04:33;;;;;;;7.25;1.75;;;;;;;1.16;100.00;99387.81;5017348;28;20054;-82
2023/03/07 07:07:01;;;;;;;6.60;1.63;;;;;;;1.19;100.00;99390.44;5016813;28;20830;-82
2023/03/07 07:09:28;;;;;;;6.80;2.13;;;;;;;1.24;100.00;99398.34;5027871;28;20052;-82
2023/03/07 07:11:56;;;;;;;6.22;1.50;;;;;;;1.26;100.00;99387.13;4988970;28;20414;-83
2023/03/07 07:14:24;;;;;;;7.38;2.00;;;;;;;1.30;100.00;99388.03;4990895;28;20096;-83
2023/03/07 07:16:51;;;;;;;8.57;2.10;;;;;;;1.33;100.00;99388.13;5034557;28;20068;-83
2023/03/07 07:19:21;;;;;;;12.38;1.90;;;;;;;1.37;100.00;99389.91;5017194;28;20403;-83
2023/03/07 07:21:48;;;;;;;5.63;2.08;;;;;;;1.40;100.00;99395.16;5026955;28;20053;-82
2023/03/07 07:24:15;;;;;;;7.85;1.70;;;;;;;1.44;100.00;99396.94;5027783;28;20053;-83
2023/03/07 07:26:43;;;;;;;7.68;1.83;;;;;;;1.49;100.00;99399.59;5024298;28;20049;-83
2023/03/07 07:29:11;;;;;;;12.45;2.05;;;;;;;1.53;100.00;99401.41;4997328;28;20052;-82
2023/03/07 07:31:38;;;;;;;15.00;2.72;;;;;;;1.56;100.00;99401.47;5020688;28;20045;-82
2023/03/07 07:34:07;;;;;;;19.02;2.05;;;;;;;1.60;100.00;99403.25;5029794;28;20057;-82
2023/03/07 07:36:35;;;;;;;14.05;2.72;;;;;;;1.66;100.00;99408.53;5002570;28;20069;-83
2023/03/07 07:39:04;;;;;;;7.05;1.90;;;;;;;1.70;100.00;99412.97;5028838;28;20060;-83
2023/03/07 07:41:33;;;;;;;15.27;2.08;;;;;;;1.74;100.00;99406.97;5018565;28;20041;-83
2023/03/07 07:44:01;;;;;;;13.68;2.25;;;;;;;1.80;100.00;99411.38;4985055;28;20050;-83
2023/03/07 07:46:36;;;;;;;12.52;2.40;;;;;;;1.84;100.00;99413.16;5007585;28;20152;-83
2023/03/07 07:49:06;;;;;;;10.73;2.15;;;;;;;1.89;100.00;99416.72;5029508;28;20056;-82
2023/03/07 07:51:34;;;;;;;9.00;1.88;;;;;;;1.95;100.00;99418.53;5005825;28;20057;-83
2023/03/07 07:54:02;;;;;;;9.48;2.13;;;;;;;2.01;100.00;99417.75;5022583;28;20061;-82
2023/03/07 07:56:29;;;;;;;9.88;2.13;;;;;;;2.06;100.00;99421.28;5029433;28;20046;-82
2023/03/07 07:58:57;;;;;;;9.85;1.90;;;;;;;2.11;100.00;99427.41;5005372;28;20056;-82
2023/03/07 08:01:24;;;;;;;6.28;1.60;;;;;;;2.17;100.00;99424.03;5013804;28;20548;-82
2023/03/07 08:03:52;;;;;;;6.40;1.50;;;;;;;2.22;100.00;99423.25;4999446;28;20061;-83
2023/03/07 08:06:23;;;;;;;10.38;1.73;;;;;;;2.25;100.00;99425.91;5045218;28;20064;-82
2023/03/07 08:08:51;;;;;;;11.77;2.03;;;;;;;2.27;100.00;99419.00;5016941;28;20052;-82
2023/03/07 08:11:19;;;;;;;6.32;1.50;;;;;;;2.30;100.00;99418.16;5026808;28;20060;-83
2023/03/07 08:13:46;;;;;;;12.88;1.60;;;;;;;2.30;100.00;99429.41;5050161;28;20418;-83
2023/03/07 08:16:16;;;;;;;7.13;1.83;;;;;;;2.31;100.00;99430.31;4976242;28;20072;-83
2023/03/07 08:18:53;;;;;;;5.50;2.13;;;;;;;2.29;100.00;99432.88;5023083;28;20064;-83
2023/03/07 08:21:23;;;;;;;8.93;2.88;;;;;;;2.29;100.00;99453.69;5012209;28;20052;-83
2023/03/07 08:23:56;;;;;;;6.88;1.50;;;;;;;2.29;100.00;99458.00;5006298;28;20523;-83
2023/03/07 08:26:24;;;;;;;7.75;3.10;;;;;;;2.30;100.00;99451.94;5019323;28;20041;-83
2023/03/07 08:28:53;;;;;;;11.27;3.60;;;;;;;2.33;100.00;99447.66;5048301;28;20064;-82
2023/03/07 08:31:23;;;;;;;4.95;1.70;;;;;;;2.36;100.00;99449.41;4976870;28;20491;-82
2023/03/07 08:33:51;;;;;;;10.27;1.90;;;;;;;2.40;100.00;99450.34;5008655;28;20060;-83
2023/03/07 08:36:19;;;;;;;8.95;1.80;;;;;;;2.45;100.00;99456.47;5029626;28;20712;-82
2023/03/07 08:38:50;;;;;;;10.63;1.85;;;;;;;2.49;100.00;99455.66;5026156;28;20038;-82
2023/03/07 08:41:19;;;;;;;8.10;1.42;;;;;;;2.54;100.00;99448.81;5017583;28;20050;-82
2023/03/07 08:43:47;;;;;;;13.00;1.60;;;;;;;2.57;100.00;99454.06;5016877;28;20045;-82
2023/03/07 08:46:15;;;;;;;5.22;1.48;;;;;;;2.60;100.00;99451.47;4975844;28;20042;-81
2023/03/07 08:48:44;;;;;;;5.50;1.75;;;;;;;2.65;100.00;99456.75;5016395;28;20711;-82
2023/03/07 08:51:14;;;;;;;5.00;1.60;;;;;;;2.68;100.00;99465.44;5022275;28;20053;-83
2023/03/07 08:53:43;;;;;;;6.82;2.15;;;;;;;2.70;100.00;99455.06;5042503;28;20053;-83
2023/03/07 08:56:14;;;;;;;6.30;2.08;;;;;;;2.72;100.00;99467.25;5021082;28;20045;-84
2023/03/07 08:58:42;;;;;;;13.10;2.42;;;;;;;2.75;100.00;99463.81;5029269;28;20053;-81
2023/03/07 09:01:11;;;;;;;4.05;1.50;;;;;;;2.82;100.00;99462.19;4993584;28;20053;-82
2023/03/07 09:03:39;;;;;;;5.60;1.52;;;;;;;2.91;100.00;99472.66;5016814;28;20068;-82
2023/03/07 09:06:07;;;;;;;5.63;1.70;;;;;;;2.93;100.00;99465.78;5000418;28;20048;-81
2023/03/07 09:08:34;;;;;;;9.38;2.97;;;;;;;2.91;100.00;99464.88;4999212;28;20057;-82
2023/03/07 09:11:04;;;;;;;6.43;1.48;;;;;;;2.86;100.00;99475.22;4997827;28;20045;-82
2023/03/07 09:13:31;;;;;;;9.67;2.00;;;;;;;2.86;100.00;99482.16;5013034;28;20041;-82
2023/03/07 09:16:08;;;;;;;7.63;1.70;;;;;;;2.77;100.00;99482.06;4992515;28;20064;-81
2023/03/07 09:18:35;;;;;;;9.07;2.00;;;;;;;2.73;100.00;99481.13;5021785;28;20049;-82
2023/03/07 09:21:04;;;;;;;5.15;1.67;;;;;;;2.69;100.00;99479.34;4983070;28;20403;-82
2023/03/07 09:23:32;;;;;;;6.25;2.13;;;;;;;2.66;100.00;99480.16;4992661;28;20053;-81
2023/03/07 09:26:05;;;;;;;5.63;1.60;;;;;;;2.64;100.00;99476.69;5019419;28;20057;-82
2023/03/07 09:28:32;;;;;;;6.53;1.60;;;;;;;2.64;100.00;99481.00;5023773;28;20075;-82
2023/03/07 09:31:06;;;;;;;6.57;1.73;;;;;;;2.62;100.00;99478.38;5002978;28;20065;-80
2023/03/07 09:33:35;;;;;;;6.82;1.52;;;;;;;2.59;100.00;99473.16;5025450;28;20060;-82
2023/03/07 09:36:04;;;;;;;3.70;1.30;;;;;;;2.58;100.00;99478.34;5021842;28;20041;-81
2023/03/07 09:38:32;;;;;;;10.05;1.83;;;;;;;2.55;100.00;99484.34;5038821;28;20494;-83
2023/03/07 09:41:41;;;;;;;6.70;1.80;;;;;;;2.53;100.00;99489.56;5016010;28;20052;-82
2023/03/07 09:44:09;;;;;;;9.27;1.85;;;;;;;2.53;100.00;99486.06;4989794;28;20060;-81
2023/03/07 09:47:30;;;;;;;5.43;1.63;;;;;;;2.57;100.00;99485.28;5031854;28;20061;-81
2023/03/07 09:50:01;;;;;;;9.05;2.17;;;;;;;2.63;100.00;99495.75;5027342;28;20304;-82
2023/03/07 09:52:36;;;;;;;4.97;2.00;;;;;;;2.67;100.00;99499.28;5010715;28;20056;-83
2023/03/07 09:55:10;;;;;;;9.50;1.65;;;;;;;2.75;100.00;99492.44;5019018;28;20049;-82
2023/03/07 09:57:50;;;;;;;6.63;1.67;;;;;;;2.83;100.00;99498.59;5030790;28;20034;-83
2023/03/07 10:00:32;;;;;;;9.77;1.77;;;;;;;2.91;100.00;99491.78;5047275;28;21261;-83
2023/03/07 10:03:30;;;;;;;9.63;1.80;;;;;;;2.98;100.00;99497.06;5019781;28;20498;-82
2023/03/07 10:06:12;;;;;;;7.25;1.77;;;;;;;3.02;100.00;99494.50;5043455;28;20048;-82
2023/03/07 10:08:39;;;;;;;10.00;2.17;;;;;;;3.04;100.00;99502.31;5037573;28;20068;-82
2023/03/07 10:11:21;;;;;;;5.63;1.80;;;;;;;3.07;100.00;99503.25;5020732;28;20049;-81
2023/03/07 10:14:04;;;;;;;8.35;1.80;;;;;;;3.08;100.00;99502.41;5014401;28;20041;-81
2023/03/07 10:17:07;;;;;;;6.03;1.60;;;;;;;3.08;100.00;99512.81;5043465;28;20045;-80
2023/03/07 10:19:55;;;;;;;8.55;1.50;;;;;;;3.08;100.00;99514.50;5005842;28;20076;-83
2023/03/07 10:22:47;;;;;;;4.32;1.10;;;;;;;3.07;100.00;99511.03;5018116;28;20491;-82
2023/03/07 10:25:41;;;;;;;6.88;1.38;;;;;;;3.06;100.00;99506.72;5020730;28;20041;-80
2023/03/07 10:28:23;;;;;;;7.07;2.05;;;;;;;3.08;100.00;99512.81;5016998;28;20057;-82
2023/03/07 10:31:23;;;;;;;4.90;1.35;;;;;;;3.15;100.00;99512.88;5043995;28;20053;-83
2023/03/07 10:33:53;;;;;;;3.95;1.40;;;;;;;3.27;100.00;99515.59;5009182;28;20060;-82
2023/03/07 10:36:24;;;;;;;;;;;;;;;3.38;100.00;99511.38;5016981;28;20069;-82
2023/03/07 10:39:22;;;;;;;6.22;1.23;;;;;;;3.56;100.00;99512.47;5038724;28;19929;-81
2023/03/07 10:41:50;;;;;;;4.82;1.30;;;;;;;3.71;100.00;99515.22;5035869;28;20068;-82
2023/03/07 10:44:19;;;;;;;15.48;1.90;;;;;;;3.78;100.00;99506.59;5022860;28;20832;-81
2023/03/07 10:46:54;;;;;;;12.10;1.77;;;;;;;3.89;100.00;99515.38;5006988;28;20038;-82
2023/03/07 10:49:30;;;;;;;8.10;1.83;;;;;;;4.10;100.00;99500.75;5028201;28;20037;-82
2023/03/07 10:52:05;;;;;;;7.90;1.58;;;;;;;4.28;100.00;99502.66;4980166;28;20049;-82
2023/03/07 10:54:35;;;;;;;5.25;1.30;;;;;;;4.35;100.00;99485.28;5031935;28;20048;-81
2023/03/07 10:57:28;;;;;;;4.82;1.52;;;;;;;4.36;100.00;99503.56;5043491;28;20045;-82
2023/03/07 11:00:12;;;;;;;4.80;1.20;;;;;;;4.49;100.00;99492.34;5046423;28;20064;-81
2023/03/07 11:02:45;;;;;;;4.07;1.80;;;;;;;4.69;100.00;99502.91;5047072;28;20111;-82
2023/03/07 11:05:35;;;;;;;4.93;1.48;;;;;;;4.80;100.00;99489.03;5047823;28;20519;-80
2023/03/07 11:08:28;;;;;;;9.38;1.77;;;;;;;4.90;100.00;99485.59;5006782;28;20037;-82
2023/03/07 11:10:56;;;;;;;5.70;1.27;;;;;;;5.04;100.00;99493.50;5038000;28;20047;-82
2023/03/07 11:13:24;;;;;;;4.40;1.38;;;;;;;5.14;100.00;99491.78;5024225;28;20753;-82
2023/03/07 11:16:13;;;;;;;6.10;1.35;;;;;;;5.17;100.00;99502.25;5046120;28;20049;-82
2023/03/07 11:18:43;;;;;;;7.15;1.48;;;;;;;5.05;100.00;99501.34;5013708;28;20057;-82
2023/03/07 11:21:34;;;;;;;6.93;1.50;;;;;;;4.91;100.00;99504.75;5010229;28;20060;-81
2023/03/07 11:24:04;;;;;;;5.50;1.50;;;;;;;4.88;100.00;99501.25;5051257;28;20049;-80
2023/03/07 11:26:38;;;;;;;6.78;1.35;;;;;;;4.82;100.00;99498.63;5031079;28;20057;-83
2023/03/07 11:29:07;;;;;;;3.28;1.02;;;;;;;4.76;100.00;99500.31;5043002;28;20041;-81
2023/03/07 11:31:51;;;;;;;4.15;1.20;;;;;;;4.70;100.00;99498.56;5043492;28;20056;-80
2023/03/07 11:34:23;;;;;;;9.45;1.27;;;;;;;4.81;100.00;99499.47;5002242;28;20049;-81
2023/03/07 11:37:00;;;;;;;6.07;1.23;;;;;;;4.90;100.00;99503.88;5048677;28;20053;-82
2023/03/07 11:39:42;;;;;;;8.93;1.50;;;;;;;4.92;100.00;99491.72;5031687;28;20037;-82
2023/03/07 11:42:27;;;;;;;3.53;1.10;;;;;;;4.95;100.00;99486.47;5040120;28;20045;-82
2023/03/07 11:45:20;;;;;;;4.30;1.95;;;;;;;4.94;100.00;99494.31;5038661;28;20052;-81
2023/03/07 11:48:16;;;;;;;3.05;1.77;;;;;;;4.94;100.00;99494.31;5023648;28;20052;-83
2023/03/07 11:50:59;;;;;;;3.20;0.88;;;;;;;4.88;100.00;99488.22;5055631;28;20045;-82
2023/03/07 11:53:41;;;;;;;9.13;1.50;;;;;;;4.86;100.00;99492.56;4990342;28;20053;-82